Matagami, Canada
Current Conditions -  °F | °C
As of 9:00 PM on Saturday 20 Dec 2014 (Local Time) from CYNM Reporting Station
Clear Clear  
Wind Chill: -9°   Ceiling: Unl
Heat Index: -9°   Visibility: 9mi
Dew Point: -13°   Wind: 2mph
Humidity: 84%   Direction: 130°SE
Pressure: 30.27"   Gusts: NA
Location:  49.76°N, 77.63°W
Report Text: CYNM 210200Z AUTO 13002KT 9SM CLR M23/M25 A3027 RMK ICG SLP287
Loading
Personal Weather Stations






























Interactive Weather Map New forecast layout! Learn more

10-Day Weather Forecast

Advertisements
Track Severe Weather on mobile